Time;durP1;ratioP1;P1;durP2;ratioP2;P2;SDS_P1;SDS_P2;PMS_P1;PMS_P2;Temp;Humidity;BMP_temperature;BMP_pressure;BME280_temperature;BME280_humidity;BME280_pressure;Samples;Min_cycle;Max_cycle;Signal;HPM_P1;HPM_P2
2023/12/22 00:01:39;;;;;;;68.40;26.65;;;;;;;0.04;75.11;93585.78;5016992;28;20041;-87
2023/12/22 00:04:06;;;;;;;65.72;27.65;;;;;;;-1.13;75.95;93372.16;5035078;28;20060;-88
2023/12/22 00:06:32;;;;;;;68.35;28.02;;;;;;;-0.99;75.71;93383.78;5018839;28;20072;-87
2023/12/22 00:08:58;;;;;;;65.68;28.30;;;;;;;-0.92;75.97;93403.34;5018706;28;20053;-88
2023/12/22 00:11:24;;;;;;;67.65;28.63;;;;;;;1.30;76.08;93731.34;5045447;28;20029;-87
2023/12/22 00:13:49;;;;;;;59.63;26.88;;;;;;;1.38;76.53;93756.97;5056636;28;20037;-87
2023/12/22 00:16:15;;;;;;;66.97;28.20;;;;;;;0.05;76.53;93553.47;5056926;28;20036;-87
2023/12/22 00:18:40;;;;;;;66.28;27.65;;;;;;;-1.13;76.84;93369.56;5055600;28;20039;-87
2023/12/22 00:21:12;;;;;;;68.78;28.73;;;;;;;0.16;77.25;93598.63;5041632;28;20013;-84
2023/12/22 00:23:40;;;;;;;68.85;26.80;;;;;;;-1.40;77.39;93356.53;5061549;28;20033;-84
2023/12/22 00:26:06;;;;;;;67.13;27.92;;;;;;;1.32;77.49;93758.75;5043814;28;20033;-83
2023/12/22 00:28:32;;;;;;;65.50;26.73;;;;;;;0.20;77.41;93566.63;5062257;28;20534;-84
2023/12/22 00:30:58;;;;;;;66.43;25.92;;;;;;;-1.18;76.83;93328.69;5062957;28;20028;-83
2023/12/22 00:33:25;;;;;;;58.38;25.60;;;;;;;-1.83;76.94;93264.56;5044142;28;20032;-83
2023/12/22 00:35:51;;;;;;;57.88;25.45;;;;;;;-1.81;76.91;93220.94;5062265;28;20059;-83
2023/12/22 00:38:17;;;;;;;69.68;25.52;;;;;;;-1.82;76.64;93250.56;5045341;28;20033;-83
2023/12/22 00:40:42;;;;;;;56.65;25.38;;;;;;;0.05;76.96;93503.94;5042173;28;20063;-88
2023/12/22 00:43:08;;;;;;;62.85;24.23;;;;;;;-0.60;77.19;93384.34;5060353;28;20061;-88
2023/12/22 00:45:33;;;;;;;57.33;24.58;;;;;;;0.91;77.07;93605.50;5027822;28;20041;-88
2023/12/22 00:47:59;;;;;;;68.47;25.77;;;;;;;0.20;77.14;93511.88;5022907;28;20036;-88
2023/12/22 00:50:25;;;;;;;60.17;24.95;;;;;;;-0.14;76.38;93454.00;5047738;28;20013;-87
2023/12/22 00:52:50;;;;;;;56.83;24.23;;;;;;;-0.42;76.92;93405.59;5034309;28;20020;-88
2023/12/22 00:55:16;;;;;;;50.83;22.45;;;;;;;0.05;77.17;93474.47;5046667;28;20097;-88
2023/12/22 00:57:42;;;;;;;48.70;22.90;;;;;;;1.17;77.16;93657.59;5025947;28;20118;-87
2023/12/22 01:00:12;;;;;;;48.83;21.85;;;;;;;1.44;76.76;93656.72;5033640;28;20049;-89
2023/12/22 01:02:38;;;;;;;60.80;22.48;;;;;;;1.62;76.73;93676.38;5028110;28;20045;-88
2023/12/22 01:05:04;;;;;;;47.78;21.33;;;;;;;0.64;76.19;93506.41;5044338;28;20068;-88
2023/12/22 01:07:31;;;;;;;44.00;19.77;;;;;;;-1.32;75.93;93213.09;5041827;28;20049;-88
2023/12/22 01:10:03;;;;;;;49.90;19.60;;;;;;;1.24;76.02;93610.34;5023766;28;20068;-88
2023/12/22 01:12:30;;;;;;;51.15;19.90;;;;;;;1.40;75.62;93634.72;5023498;28;20456;-88
2023/12/22 01:14:57;;;;;;;44.30;19.25;;;;;;;-1.09;75.66;93277.78;5040742;28;20086;-88
2023/12/22 01:17:23;;;;;;;51.15;21.50;;;;;;;0.72;75.27;93511.94;5041043;28;20428;-88
2023/12/22 01:19:48;;;;;;;46.65;21.98;;;;;;;1.35;76.16;93613.81;5023285;28;20045;-89
2023/12/22 01:22:14;;;;;;;59.05;25.67;;;;;;;0.87;76.54;93575.69;5042195;28;20439;-88
2023/12/22 01:24:42;;;;;;;49.67;22.33;;;;;;;1.38;76.98;93649.88;5024569;28;20096;-88
2023/12/22 01:27:09;;;;;;;55.83;23.63;;;;;;;-1.23;76.59;93276.63;5041714;28;20025;-88
2023/12/22 01:29:35;;;;;;;51.33;23.92;;;;;;;-0.44;76.90;93396.47;5023440;28;20030;-88
2023/12/22 01:32:00;;;;;;;54.70;23.77;;;;;;;-1.67;76.84;93175.34;5018936;28;20036;-88
2023/12/22 01:34:29;;;;;;;52.42;23.30;;;;;;;-1.58;76.53;93217.28;5019245;28;20566;-87
2023/12/22 01:36:54;;;;;;;53.58;22.30;;;;;;;-0.12;76.67;93415.47;5019193;28;20060;-87
2023/12/22 01:39:20;;;;;;;45.63;21.75;;;;;;;1.56;76.87;93678.19;5018944;28;20055;-87
2023/12/22 01:41:45;;;;;;;47.88;20.90;;;;;;;1.73;76.13;93655.28;5037204;28;20040;-88
2023/12/22 01:44:11;;;;;;;45.67;20.85;;;;;;;0.43;77.14;93492.47;5019766;28;20025;-87
2023/12/22 01:46:37;;;;;;;51.47;22.00;;;;;;;0.46;77.14;93480.75;5037073;28;20033;-87
2023/12/22 01:49:03;;;;;;;44.50;20.30;;;;;;;1.26;77.06;93571.72;5019572;28;20454;-87
2023/12/22 01:51:31;;;;;;;40.92;19.30;;;;;;;0.59;76.84;93469.88;5021656;28;20032;-84
2023/12/22 01:53:57;;;;;;;41.97;19.45;;;;;;;0.38;75.94;93435.84;5039697;28;20033;-85
2023/12/22 01:56:23;;;;;;;41.92;17.67;;;;;;;1.09;76.21;93516.28;5022065;28;20550;-84
2023/12/22 01:58:53;;;;;;;40.85;19.55;;;;;;;1.72;76.16;93629.38;5039248;28;20037;-85
2023/12/22 02:01:20;;;;;;;36.83;17.45;;;;;;;1.71;76.18;93631.22;5020758;28;20068;-84
2023/12/22 02:03:52;;;;;;;35.75;17.08;;;;;;;0.57;75.59;93415.34;5021650;28;20033;-84
2023/12/22 02:06:18;;;;;;;34.72;18.20;;;;;;;1.13;76.61;93536.44;5038196;28;20029;-85
2023/12/22 02:08:46;;;;;;;42.80;18.05;;;;;;;1.62;76.21;93616.28;5019806;28;20025;-84
2023/12/22 02:11:12;;;;;;;41.28;18.95;;;;;;;1.52;76.19;93576.03;5020667;28;20116;-84
2023/12/22 02:13:38;;;;;;;35.45;16.83;;;;;;;1.88;76.12;93623.97;5020643;28;20060;-85
2023/12/22 02:16:20;;;;;;;43.78;18.88;;;;;;;1.42;75.41;93547.25;5020488;28;20030;-84
2023/12/22 02:18:50;;;;;;;38.45;16.00;;;;;;;1.69;75.52;93585.47;5020411;28;20116;-85
2023/12/22 02:21:16;;;;;;;38.45;17.95;;;;;;;2.07;75.14;93623.47;5020623;28;20030;-84
2023/12/22 02:23:42;;;;;;;46.67;18.70;;;;;;;1.68;75.60;93573.47;5020229;28;20048;-85
2023/12/22 02:26:27;;;;;;;39.58;17.40;;;;;;;1.89;75.59;93609.06;5035921;28;20068;-84
2023/12/22 02:28:55;;;;;;;61.33;23.77;;;;;;;1.83;76.32;93629.16;5022120;28;20415;-85
2023/12/22 02:31:37;;;;;;;68.10;27.58;;;;;;;1.49;76.18;93554.84;5022544;28;20083;-85
2023/12/22 02:34:06;;;;;;;;;;;;;;;1.85;76.15;93614.00;5041076;28;20055;-85
2023/12/22 02:36:36;;;;;;;72.20;27.73;;;;;;;1.31;76.51;93550.06;5040938;28;19928;-84
2023/12/22 02:39:02;;;;;;;60.28;27.38;;;;;;;1.55;76.10;93564.25;5048036;28;20038;-84
2023/12/22 02:41:28;;;;;;;61.50;27.30;;;;;;;1.48;75.81;93542.81;5019127;28;20033;-87
2023/12/22 02:43:53;;;;;;;61.58;25.50;;;;;;;1.62;75.92;93569.25;5036176;28;20529;-87
2023/12/22 02:46:19;;;;;;;59.22;23.83;;;;;;;1.78;75.77;93594.38;5035391;28;20041;-87
2023/12/22 02:48:44;;;;;;;58.97;24.42;;;;;;;1.14;76.27;93543.19;5017956;28;20049;-87
2023/12/22 02:51:10;;;;;;;53.05;22.80;;;;;;;1.57;76.69;93593.53;5017432;28;20493;-86
2023/12/22 02:53:35;;;;;;;67.57;23.20;;;;;;;0.69;76.41;93467.28;5037616;28;20045;-88
2023/12/22 02:56:02;;;;;;;54.28;22.77;;;;;;;1.46;76.79;93608.38;5036455;28;20041;-87
2023/12/22 02:58:28;;;;;;;65.50;24.10;;;;;;;0.46;76.31;93405.13;5037865;28;20033;-86
2023/12/22 03:00:53;;;;;;;57.85;21.90;;;;;;;1.58;76.42;93566.38;5034018;28;20099;-87
2023/12/22 03:03:19;;;;;;;52.10;21.55;;;;;;;1.73;76.49;93587.31;5038997;28;20064;-85
2023/12/22 03:05:44;;;;;;;55.63;21.98;;;;;;;0.20;76.35;93350.25;5058171;28;20475;-84
2023/12/22 03:08:10;;;;;;;55.97;21.42;;;;;;;0.06;76.28;93314.47;5040912;28;20037;-84
2023/12/22 03:10:35;;;;;;;50.00;20.80;;;;;;;0.80;75.70;93432.41;5039737;28;20099;-85
2023/12/22 03:13:01;;;;;;;52.50;20.83;;;;;;;1.17;76.21;93466.97;5038910;28;20057;-85
2023/12/22 03:15:26;;;;;;;44.95;20.08;;;;;;;1.94;76.08;93609.06;5039184;28;20098;-85
2023/12/22 03:17:52;;;;;;;59.22;21.85;;;;;;;1.54;76.20;93555.63;5039567;28;20117;-84
2023/12/22 03:20:18;;;;;;;49.03;20.58;;;;;;;0.22;75.74;93345.56;5039454;28;20037;-85
2023/12/22 03:22:43;;;;;;;47.13;19.67;;;;;;;-1.07;75.50;93142.28;5038665;28;20084;-84
2023/12/22 03:25:09;;;;;;;41.85;18.50;;;;;;;0.34;75.79;93372.22;5038315;28;20463;-84
2023/12/22 03:27:34;;;;;;;42.15;18.63;;;;;;;0.06;76.36;93327.50;5057581;28;20033;-84
2023/12/22 03:30:01;;;;;;;42.50;18.60;;;;;;;1.50;77.14;93598.22;5057249;28;20041;-84
2023/12/22 03:32:27;;;;;;;42.28;18.23;;;;;;;0.20;76.48;93368.50;5056547;28;20040;-85
2023/12/22 03:34:52;;;;;;;42.30;17.92;;;;;;;1.16;76.53;93506.41;5058275;28;20033;-85
2023/12/22 03:37:18;;;;;;;40.40;20.02;;;;;;;1.71;76.61;93599.84;5058718;28;20039;-85
2023/12/22 03:39:43;;;;;;;48.33;20.30;;;;;;;0.55;76.57;93433.06;5057920;28;20086;-86
2023/12/22 03:42:10;;;;;;;38.25;19.60;;;;;;;0.55;77.00;93417.41;5040884;28;20090;-85
2023/12/22 03:44:35;;;;;;;45.42;20.13;;;;;;;1.55;76.92;93554.59;5041021;28;20032;-85
2023/12/22 03:47:01;;;;;;;46.75;19.80;;;;;;;1.73;76.99;93578.69;5059083;28;20045;-85
2023/12/22 03:49:26;;;;;;;42.97;18.70;;;;;;;1.64;77.72;93577.63;5039954;28;20037;-85
2023/12/22 03:51:52;;;;;;;39.45;18.80;;;;;;;1.57;78.29;93577.06;5056688;28;20033;-85
2023/12/22 03:54:18;;;;;;;42.30;19.48;;;;;;;1.55;78.87;93569.47;5039255;28;20443;-86
2023/12/22 03:56:44;;;;;;;45.50;19.83;;;;;;;1.10;79.14;93489.94;5056938;28;20119;-85
2023/12/22 03:59:09;;;;;;;39.00;18.55;;;;;;;-0.78;78.70;93218.94;5039889;28;20116;-85
2023/12/22 04:01:35;;;;;;;47.95;20.23;;;;;;;-0.04;79.50;93309.97;5057371;28;20037;-85
2023/12/22 04:04:03;;;;;;;45.42;19.45;;;;;;;1.05;79.37;93478.69;5056831;28;20547;-85
2023/12/22 04:06:29;;;;;;;41.03;19.58;;;;;;;0.17;79.22;93345.53;5057475;28;20036;-85
2023/12/22 04:08:54;;;;;;;41.10;19.85;;;;;;;1.71;79.79;93557.25;5040541;28;20041;-85
2023/12/22 04:11:20;;;;;;;46.60;20.02;;;;;;;0.15;79.29;93334.59;5055738;28;20051;-88
2023/12/22 04:13:45;;;;;;;42.78;19.98;;;;;;;1.73;80.20;93589.16;5054340;28;20029;-87
2023/12/22 04:16:11;;;;;;;42.97;19.48;;;;;;;1.72;80.06;93579.72;5054443;28;20106;-87
2023/12/22 04:18:37;;;;;;;44.13;19.48;;;;;;;1.49;79.97;93542.56;5036991;28;20032;-87
2023/12/22 04:21:02;;;;;;;50.88;19.52;;;;;;;1.57;79.86;93549.13;5036221;28;20040;-87
2023/12/22 04:23:28;;;;;;;39.45;18.92;;;;;;;1.93;79.95;93583.97;5053869;28;20044;-87
2023/12/22 04:25:53;;;;;;;44.22;19.58;;;;;;;1.79;79.81;93560.16;5036037;28;20575;-87
2023/12/22 04:28:19;;;;;;;44.50;20.30;;;;;;;1.61;80.17;93507.56;5054395;28;20412;-87
2023/12/22 04:30:45;;;;;;;41.85;19.20;;;;;;;-0.12;79.82;93232.28;5055991;28;20438;-88
2023/12/22 04:33:10;;;;;;;44.53;20.08;;;;;;;0.05;80.19;93297.25;5040448;28;20067;-87
2023/12/22 04:35:36;;;;;;;49.50;20.05;;;;;;;0.90;80.07;93387.28;5058294;28;20090;-87
2023/12/22 04:38:01;;;;;;;42.38;20.15;;;;;;;1.97;80.03;93534.56;5039587;28;20043;-87
2023/12/22 04:40:28;;;;;;;55.50;21.10;;;;;;;1.71;80.04;93494.53;5040065;28;20032;-87
2023/12/22 04:42:53;;;;;;;46.90;20.38;;;;;;;1.86;81.70;93559.91;5040275;28;20149;-87
2023/12/22 04:45:19;;;;;;;42.38;21.33;;;;;;;-0.01;81.94;93283.44;5057971;28;20495;-87
2023/12/22 04:47:45;;;;;;;52.65;20.65;;;;;;;1.30;82.42;93478.00;5039955;28;20124;-86
2023/12/22 04:50:10;;;;;;;41.47;21.48;;;;;;;1.42;83.50;93484.56;5058226;28;20429;-87
2023/12/22 04:52:36;;;;;;;50.35;20.67;;;;;;;-0.93;83.09;93112.94;5040289;28;20143;-86
2023/12/22 04:55:02;;;;;;;41.05;19.17;;;;;;;1.92;83.24;93575.34;5058102;28;20029;-87
2023/12/22 04:57:27;;;;;;;47.03;21.67;;;;;;;-0.79;82.93;93150.50;5040116;28;20063;-86
2023/12/22 04:59:53;;;;;;;42.03;20.17;;;;;;;0.81;83.38;93399.25;5058408;28;20094;-84
2023/12/22 05:02:18;;;;;;;50.83;21.67;;;;;;;-0.60;83.48;93189.88;5062724;28;20033;-84
2023/12/22 05:04:44;;;;;;;53.80;21.70;;;;;;;-0.35;83.93;93232.72;5044906;28;20040;-83
2023/12/22 05:07:10;;;;;;;49.13;20.15;;;;;;;-0.31;83.71;93186.91;5044002;28;20036;-83
2023/12/22 05:09:36;;;;;;;43.00;20.58;;;;;;;0.90;84.17;93361.97;5042884;28;20025;-84
2023/12/22 05:12:03;;;;;;;54.88;22.42;;;;;;;-1.13;83.74;93055.59;5037822;28;20035;-84
2023/12/22 05:14:28;;;;;;;47.30;21.67;;;;;;;1.87;84.55;93553.63;5042123;28;20522;-85
2023/12/22 05:16:55;;;;;;;47.15;20.30;;;;;;;0.33;84.56;93304.66;5054051;28;20053;-84
2023/12/22 05:19:21;;;;;;;49.72;21.35;;;;;;;-0.06;84.74;93259.94;5027657;28;20033;-85
2023/12/22 05:21:52;;;;;;;52.90;19.90;;;;;;;1.80;85.28;93535.59;5051947;28;20045;-87
2023/12/22 05:24:18;;;;;;;46.17;20.55;;;;;;;1.08;86.10;93439.00;5060627;28;20027;-87
2023/12/22 05:26:43;;;;;;;48.97;20.52;;;;;;;0.92;85.87;93380.75;5045072;28;20051;-87
2023/12/22 05:29:12;;;;;;;44.92;20.50;;;;;;;0.97;85.79;93432.97;5037847;28;20037;-87
2023/12/22 05:31:39;;;;;;;57.03;26.52;;;;;;;1.37;86.26;93447.19;5037971;28;20061;-86
2023/12/22 05:34:07;;;;;;;44.42;22.13;;;;;;;-0.91;85.60;93099.66;5018919;28;20049;-87
2023/12/22 05:36:33;;;;;;;38.15;19.17;;;;;;;-0.57;85.17;93173.75;5018996;28;20067;-87
2023/12/22 05:39:04;;;;;;;43.60;20.45;;;;;;;0.27;84.37;93295.25;5011919;28;20495;-87
2023/12/22 05:41:29;;;;;;;40.88;19.98;;;;;;;-1.44;83.83;93040.84;5007697;28;20037;-87
2023/12/22 05:43:57;;;;;;;43.22;21.85;;;;;;;-0.34;84.50;93223.88;5008875;28;20527;-87
2023/12/22 05:46:25;;;;;;;45.38;21.33;;;;;;;-0.44;84.68;93167.31;5017939;28;20324;-86
2023/12/22 05:48:51;;;;;;;44.88;20.75;;;;;;;0.76;84.82;93327.72;5034537;28;20040;-86
2023/12/22 05:51:19;;;;;;;38.80;18.80;;;;;;;-0.82;84.69;93077.31;5019594;28;20391;-87
2023/12/22 05:53:45;;;;;;;40.08;18.85;;;;;;;-1.10;84.89;93049.13;5022498;28;20037;-88
2023/12/22 05:56:26;;;;;;;50.65;20.10;;;;;;;2.07;86.12;93558.88;5034616;28;20056;-86
2023/12/22 05:58:55;;;;;;;41.13;20.50;;;;;;;0.62;85.98;93325.88;5026349;28;20041;-87
2023/12/22 06:01:20;;;;;;;42.90;20.50;;;;;;;-0.13;86.25;93194.25;5031655;28;20125;-87
2023/12/22 06:03:46;;;;;;;43.70;19.73;;;;;;;-0.88;85.57;93080.94;5010362;28;20036;-87
2023/12/22 06:06:12;;;;;;;41.13;19.60;;;;;;;-1.10;85.85;93047.28;5007092;28;20401;-87
2023/12/22 06:08:38;;;;;;;42.63;19.90;;;;;;;2.08;85.63;93546.59;5011926;28;20045;-87
2023/12/22 06:11:04;;;;;;;44.30;22.05;;;;;;;0.98;85.78;93360.69;5004227;28;20705;-87
2023/12/22 06:13:30;;;;;;;38.47;18.42;;;;;;;0.56;85.11;93287.78;5032777;28;20550;-87
2023/12/22 06:15:56;;;;;;;43.72;21.42;;;;;;;0.21;85.30;93228.50;5017330;28;20045;-87
2023/12/22 06:18:22;;;;;;;41.47;18.80;;;;;;;0.51;84.87;93285.94;5015957;28;20107;-86
2023/12/22 06:20:48;;;;;;;39.55;20.10;;;;;;;-0.67;84.71;93094.81;5013921;28;20066;-86
2023/12/22 06:23:13;;;;;;;38.83;19.55;;;;;;;0.55;85.01;93305.25;5022387;28;20065;-86
2023/12/22 06:25:39;;;;;;;41.47;20.35;;;;;;;2.25;85.55;93575.91;5034638;28;20041;-85
2023/12/22 06:28:07;;;;;;;37.58;18.85;;;;;;;-0.82;84.50;93087.75;5037545;28;20040;-86
2023/12/22 06:30:33;;;;;;;47.50;19.83;;;;;;;1.54;86.11;93479.88;5029641;28;20042;-85
2023/12/22 06:33:02;;;;;;;40.90;20.80;;;;;;;2.10;86.59;93550.53;5023340;28;20071;-85
2023/12/22 06:35:34;;;;;;;42.53;19.65;;;;;;;-0.80;86.08;93088.28;5022103;28;20040;-85
2023/12/22 06:38:17;;;;;;;42.80;19.85;;;;;;;-0.87;85.84;93108.53;5041424;28;20241;-85
2023/12/22 06:40:46;;;;;;;45.50;19.65;;;;;;;0.77;86.73;93334.53;5033376;28;20049;-86
2023/12/22 06:43:13;;;;;;;44.55;20.92;;;;;;;0.14;86.48;93246.22;5031868;28;20092;-86
2023/12/22 06:45:41;;;;;;;43.85;19.83;;;;;;;1.14;86.64;93376.09;5027927;28;20037;-85
2023/12/22 06:48:09;;;;;;;41.08;21.85;;;;;;;-0.76;86.30;93059.94;5033943;28;20057;-85
2023/12/22 06:50:48;;;;;;;43.17;21.65;;;;;;;1.34;86.47;93380.59;5033655;28;20059;-86
2023/12/22 06:53:17;;;;;;;40.00;20.63;;;;;;;2.54;86.27;93563.09;5032110;28;20106;-86
2023/12/22 06:55:45;;;;;;;39.53;20.98;;;;;;;0.26;86.30;93225.91;5038269;28;20037;-86
2023/12/22 06:58:11;;;;;;;41.72;20.38;;;;;;;0.83;86.56;93279.75;5037644;28;20056;-86
2023/12/22 07:00:40;;;;;;;39.13;20.75;;;;;;;0.19;86.27;93175.84;5028107;28;20075;-86
2023/12/22 07:03:07;;;;;;;47.78;20.85;;;;;;;0.23;86.23;93188.09;5033532;28;20104;-86
2023/12/22 07:05:34;;;;;;;48.35;19.75;;;;;;;1.55;86.73;93410.91;5034010;28;20039;-86
2023/12/22 07:08:00;;;;;;;47.13;21.10;;;;;;;0.40;87.14;93250.44;5035622;28;20055;-85
2023/12/22 07:10:26;;;;;;;51.35;20.75;;;;;;;2.59;87.16;93550.81;5035235;28;20128;-86
2023/12/22 07:12:54;;;;;;;41.72;21.17;;;;;;;1.68;87.19;93393.91;5025558;28;20068;-86
2023/12/22 07:15:23;;;;;;;42.25;20.92;;;;;;;0.85;87.41;93272.44;5025575;28;20036;-86
2023/12/22 07:18:21;;;;;;;55.03;20.40;;;;;;;2.74;88.46;93567.53;5023751;28;20065;-85
2023/12/22 07:20:48;;;;;;;49.72;21.60;;;;;;;2.09;88.21;93454.81;4997033;28;20049;-86
2023/12/22 07:23:14;;;;;;;55.03;21.80;;;;;;;2.33;88.02;93495.09;5038627;28;20060;-86
2023/12/22 07:25:39;;;;;;;46.70;21.40;;;;;;;0.73;87.85;93255.22;5042548;28;20418;-86
2023/12/22 07:28:10;;;;;;;45.65;20.48;;;;;;;0.17;87.80;93178.69;5033111;28;20097;-86
2023/12/22 07:30:36;;;;;;;46.08;23.58;;;;;;;0.44;88.06;93190.75;5031058;28;20143;-85
2023/12/22 07:33:02;;;;;;;50.88;25.15;;;;;;;0.48;88.27;93187.34;5027711;28;20041;-86
2023/12/22 07:35:30;;;;;;;58.83;24.88;;;;;;;0.54;88.22;93215.00;5024716;28;20075;-86
2023/12/22 07:37:56;;;;;;;43.63;23.83;;;;;;;1.13;88.43;93305.88;5020229;28;20057;-85
2023/12/22 07:42:59;;;;;;;67.90;29.95;;;;;;;2.82;89.11;93541.59;5026905;28;20056;-85
2023/12/22 07:45:32;;;;;;;49.75;26.58;;;;;;;3.04;88.44;93586.59;5037086;28;20060;-84
2023/12/22 07:48:01;;;;;;;45.42;23.88;;;;;;;2.35;88.82;93479.13;5033417;28;20029;-85
2023/12/22 07:50:27;;;;;;;51.10;24.08;;;;;;;3.07;88.89;93593.13;5043908;28;20092;-84
2023/12/22 07:52:53;;;;;;;43.78;22.77;;;;;;;3.06;88.65;93588.94;5038377;28;20900;-84
2023/12/22 07:55:18;;;;;;;48.70;21.95;;;;;;;3.11;89.04;93596.81;5016648;28;20037;-83
2023/12/22 07:57:45;;;;;;;42.90;21.55;;;;;;;3.15;89.03;93613.53;5014042;28;20033;-83
2023/12/22 08:00:14;;;;;;;46.25;21.00;;;;;;;2.71;88.62;93546.06;5018996;28;20365;-84
2023/12/22 08:02:39;;;;;;;40.75;19.63;;;;;;;3.00;88.58;93579.53;5023618;28;20036;-84
2023/12/22 08:05:05;;;;;;;45.05;20.95;;;;;;;2.70;88.64;93514.91;5024203;28;20102;-84
2023/12/22 08:07:34;;;;;;;48.63;21.90;;;;;;;2.56;88.37;93503.44;5034040;28;20474;-84
2023/12/22 08:09:59;;;;;;;43.75;20.92;;;;;;;3.13;88.24;93586.81;5036569;28;20029;-83
2023/12/22 08:12:25;;;;;;;43.90;19.80;;;;;;;3.41;88.03;93627.38;5024508;28;20364;-84
2023/12/22 08:14:51;;;;;;;40.42;18.98;;;;;;;3.32;87.91;93613.25;5039639;28;20160;-84
2023/12/22 08:17:17;;;;;;;44.60;20.35;;;;;;;3.24;88.33;93611.97;5028580;28;21557;-86
2023/12/22 08:19:43;;;;;;;48.20;21.02;;;;;;;3.25;88.23;93620.59;5044680;28;20317;-86
2023/12/22 08:22:13;;;;;;;45.80;22.45;;;;;;;3.45;88.25;93638.88;5028517;28;20025;-83
2023/12/22 08:24:41;;;;;;;49.88;23.20;;;;;;;3.19;87.94;93593.66;5027419;28;20098;-87
2023/12/22 08:27:07;;;;;;;48.22;22.42;;;;;;;2.31;87.38;93481.47;5041156;28;20037;-83
2023/12/22 08:29:33;;;;;;;44.20;21.52;;;;;;;3.02;87.77;93580.06;5040361;28;20467;-82
2023/12/22 08:32:00;;;;;;;50.30;23.90;;;;;;;2.93;88.20;93577.19;5042340;28;20084;-80
2023/12/22 08:34:26;;;;;;;50.90;23.90;;;;;;;3.42;87.79;93648.09;5043249;28;20067;-82
2023/12/22 08:36:55;;;;;;;50.63;23.13;;;;;;;1.79;88.43;93405.16;5042629;28;20369;-82
2023/12/22 08:39:20;;;;;;;52.58;23.35;;;;;;;1.92;88.76;93436.78;5041182;28;20090;-81
2023/12/22 08:41:47;;;;;;;45.15;22.38;;;;;;;3.14;89.67;93611.97;5041086;28;20049;-81
2023/12/22 08:44:14;;;;;;;45.13;21.33;;;;;;;2.68;89.27;93524.84;5039466;28;20047;-82
2023/12/22 08:46:40;;;;;;;44.50;21.52;;;;;;;2.66;89.27;93527.75;5040440;28;20035;-83
2023/12/22 08:49:05;;;;;;;51.15;22.30;;;;;;;3.37;89.79;93632.34;5044425;28;20033;-81
2023/12/22 08:51:31;;;;;;;45.97;21.70;;;;;;;3.28;89.81;93609.59;5047812;28;20032;-80
2023/12/22 08:53:58;;;;;;;46.67;21.38;;;;;;;3.46;90.03;93632.59;5046470;28;20471;-81
2023/12/22 08:56:24;;;;;;;54.72;22.90;;;;;;;2.46;89.38;93474.66;5048664;28;20036;-82
2023/12/22 08:58:52;;;;;;;47.95;22.50;;;;;;;3.25;89.62;93589.94;5027632;28;20131;-83
2023/12/22 09:01:18;;;;;;;53.60;26.25;;;;;;;3.12;89.97;93590.53;5044009;28;20298;-81
2023/12/22 09:03:47;;;;;;;55.13;25.98;;;;;;;3.14;90.22;93577.91;5043001;28;20059;-83
2023/12/22 09:06:17;;;;;;;47.35;24.77;;;;;;;2.08;90.43;93461.09;5046364;28;20033;-80
2023/12/22 09:08:43;;;;;;;56.75;26.35;;;;;;;3.46;91.24;93659.59;5055352;28;20040;-83
2023/12/22 09:11:12;;;;;;;57.00;27.13;;;;;;;2.93;91.60;93574.56;5066343;28;20021;-83
2023/12/22 09:13:38;;;;;;;57.25;28.08;;;;;;;1.51;92.10;93377.72;5060410;28;20036;-84
2023/12/22 09:16:04;;;;;;;56.15;28.02;;;;;;;2.52;92.36;93513.63;5071859;28;20056;-83
2023/12/22 09:18:29;;;;;;;70.93;30.17;;;;;;;3.53;92.24;93677.66;5060963;28;20041;-84
2023/12/22 09:20:58;;;;;;;56.47;29.30;;;;;;;3.55;92.67;93665.09;5065748;28;20110;-84
2023/12/22 09:23:24;;;;;;;74.53;29.35;;;;;;;2.29;93.05;93483.56;5075546;28;20051;-83
2023/12/22 09:25:49;;;;;;;62.75;29.50;;;;;;;2.64;93.02;93526.44;5067415;28;20067;-83
2023/12/22 09:28:15;;;;;;;60.42;29.42;;;;;;;2.62;93.01;93520.69;5060547;28;20127;-84
2023/12/22 09:30:41;;;;;;;63.75;29.23;;;;;;;3.15;93.08;93612.75;5073602;28;20032;-83
2023/12/22 09:33:09;;;;;;;55.72;27.88;;;;;;;3.08;93.30;93585.00;5073274;28;20036;-84
2023/12/22 09:35:35;;;;;;;59.20;27.05;;;;;;;3.53;93.60;93661.94;5060669;28;20029;-84
2023/12/22 09:38:01;;;;;;;57.97;27.60;;;;;;;3.39;93.60;93616.38;5058820;28;20588;-84
2023/12/22 09:40:26;;;;;;;66.70;29.50;;;;;;;3.46;93.63;93629.97;5057512;28;20037;-83
2023/12/22 09:42:55;;;;;;;56.95;27.17;;;;;;;2.30;94.39;93440.66;5057386;28;20054;-81
2023/12/22 09:45:21;;;;;;;55.95;26.63;;;;;;;3.44;94.03;93601.41;5055873;28;20093;-82
2023/12/22 09:47:54;;;;;;;53.22;25.48;;;;;;;3.35;93.80;93568.97;5061570;28;20039;-81
2023/12/22 09:50:20;;;;;;;51.92;26.33;;;;;;;3.55;93.96;93601.38;5054760;28;20032;-81
2023/12/22 09:52:46;;;;;;;48.03;24.85;;;;;;;3.96;93.74;93644.75;5053309;28;20033;-84
2023/12/22 09:55:13;;;;;;;48.38;25.42;;;;;;;3.88;93.81;93616.47;5057524;28;20047;-83
2023/12/22 09:57:39;;;;;;;49.10;26.23;;;;;;;4.18;93.69;93653.03;5059720;28;20488;-84
2023/12/22 10:00:09;;;;;;;50.17;23.80;;;;;;;4.20;93.65;93624.69;5054886;28;20102;-84
2023/12/22 10:02:37;;;;;;;48.63;23.60;;;;;;;3.63;93.30;93519.56;5057304;28;20116;-84
2023/12/22 10:05:03;;;;;;;65.72;25.45;;;;;;;4.25;93.29;93601.03;5059103;28;20354;-82
2023/12/22 10:07:30;;;;;;;50.67;25.02;;;;;;;4.19;92.23;93590.84;5057065;28;20055;-81
2023/12/22 10:09:57;;;;;;;47.40;24.13;;;;;;;4.43;92.74;93638.97;5059947;28;20075;-84
2023/12/22 10:12:25;;;;;;;47.08;24.92;;;;;;;4.07;92.39;93590.38;5059498;28;20028;-84
2023/12/22 10:14:52;;;;;;;44.67;22.63;;;;;;;4.46;92.63;93635.03;5062333;28;20048;-84
2023/12/22 10:17:19;;;;;;;45.10;23.55;;;;;;;4.29;92.74;93590.78;5080939;28;20025;-85
2023/12/22 10:19:44;;;;;;;48.50;23.98;;;;;;;4.49;92.61;93611.66;5071249;28;20039;-84
2023/12/22 10:22:11;;;;;;;52.78;22.35;;;;;;;4.64;92.24;93611.53;5064275;28;20099;-84
2023/12/22 10:24:47;;;;;;;44.10;21.42;;;;;;;4.61;92.33;93595.53;5063462;28;20579;-84
2023/12/22 10:27:14;;;;;;;48.03;21.38;;;;;;;4.75;92.06;93609.59;5063228;28;20029;-84
2023/12/22 10:29:40;;;;;;;39.60;19.88;;;;;;;4.67;92.32;93599.69;5054151;28;20462;-84
2023/12/22 10:32:06;;;;;;;47.35;21.17;;;;;;;4.91;92.49;93590.03;5058577;28;20089;-84
2023/12/22 10:34:32;;;;;;;42.50;21.63;;;;;;;4.42;93.07;93516.69;5061109;28;20115;-83
2023/12/22 10:37:01;;;;;;;48.53;25.15;;;;;;;5.09;93.33;93585.94;5068069;28;20032;-82
2023/12/22 10:39:31;;;;;;;53.88;25.77;;;;;;;5.24;93.11;93588.41;5067338;28;20025;-84
2023/12/22 10:42:00;;;;;;;48.65;23.08;;;;;;;5.24;92.63;93577.91;5069320;28;20049;-84
2023/12/22 10:44:27;;;;;;;55.15;26.40;;;;;;;5.32;92.35;93574.66;5066504;28;20036;-84
2023/12/22 10:46:56;;;;;;;47.10;21.52;;;;;;;4.97;92.47;93502.22;5056339;28;20044;-85
2023/12/22 10:49:22;;;;;;;48.85;20.02;;;;;;;5.51;92.44;93556.31;5065266;28;20059;-85
2023/12/22 10:51:49;;;;;;;37.15;18.30;;;;;;;5.33;92.11;93497.38;5063089;28;20420;-85
2023/12/22 10:54:14;;;;;;;31.08;15.18;;;;;;;5.44;91.23;93514.56;5066859;28;20021;-85
2023/12/22 10:56:41;;;;;;;30.42;16.23;;;;;;;5.83;91.98;93540.66;5074132;28;20094;-85
2023/12/22 10:59:07;;;;;;;25.75;11.63;;;;;;;5.87;91.04;93542.72;5058241;28;20024;-84
2023/12/22 11:01:38;;;;;;;21.30;11.13;;;;;;;5.34;91.12;93474.50;5056546;28;20047;-83
2023/12/22 11:04:06;;;;;;;20.42;10.30;;;;;;;5.58;91.00;93504.16;5071543;28;20028;-84
2023/12/22 11:06:37;;;;;;;26.48;12.30;;;;;;;5.81;91.13;93544.63;5066495;28;20024;-85
2023/12/22 11:09:10;;;;;;;26.67;10.88;;;;;;;5.29;90.28;93520.00;5058074;28;20472;-84
2023/12/22 11:11:38;;;;;;;21.83;10.25;;;;;;;5.71;89.36;93529.00;5056765;28;20092;-85
2023/12/22 11:14:04;;;;;;;20.67;9.63;;;;;;;4.30;89.28;93305.53;5051811;28;20036;-85
2023/12/22 11:16:33;;;;;;;18.77;9.57;;;;;;;5.84;89.15;93501.97;5058289;28;20340;-88
2023/12/22 11:19:00;;;;;;;16.75;8.00;;;;;;;5.91;90.01;93494.53;5054659;28;20025;-84
2023/12/22 11:21:26;;;;;;;19.40;8.85;;;;;;;6.13;88.84;93483.44;5059013;28;20037;-85
2023/12/22 11:23:53;;;;;;;17.85;7.97;;;;;;;6.34;87.13;93512.84;5051808;28;20086;-85
2023/12/22 11:26:20;;;;;;;14.60;6.68;;;;;;;6.26;88.22;93509.00;5039161;28;20045;-85